Time;durP1;ratioP1;P1;durP2;ratioP2;P2;SDS_P1;SDS_P2;PMS_P1;PMS_P2;Temp;Humidity;BMP_temperature;BMP_pressure;BME280_temperature;BME280_humidity;BME280_pressure;Samples;Min_cycle;Max_cycle;Signal;HPM_P1;HPM_P2
2023/03/11 00:09:25;;;;;;;19.45;7.65;;;;;;;-3.32;48.04;99508.06;6081831;23;20038;-77
2023/03/11 00:13:02;;;;;;;13.00;6.70;;;;;;;-3.33;49.26;99507.19;6073993;23;20038;-76
2023/03/11 00:15:32;;;;;;;13.32;6.97;;;;;;;-3.31;49.00;99516.56;6096458;23;20072;-76
2023/03/11 00:18:12;;;;;;;14.40;6.35;;;;;;;-3.21;49.12;99508.53;6070833;23;20027;-73
2023/03/11 00:21:04;;;;;;;14.48;7.28;;;;;;;-3.03;49.38;99514.38;6077459;23;20022;-75
2023/03/11 00:24:22;;;;;;;14.70;6.88;;;;;;;-3.14;48.08;99513.03;6055597;23;20029;-75
2023/03/11 00:28:01;;;;;;;13.68;7.10;;;;;;;-3.23;49.36;99508.44;6096926;23;20374;-75
2023/03/11 00:31:43;;;;;;;14.23;7.43;;;;;;;-2.99;49.15;99515.34;6084698;23;20101;-75
2023/03/11 00:34:57;;;;;;;24.85;8.75;;;;;;;-2.85;49.16;99509.94;6053942;23;20026;-76
2023/03/11 00:38:29;;;;;;;19.38;8.63;;;;;;;-2.81;48.71;99494.88;6093055;23;20359;-76
2023/03/11 00:41:40;;;;;;;23.52;9.02;;;;;;;-2.72;48.76;99515.59;6038150;23;20030;-77
2023/03/11 00:44:22;;;;;;;19.23;7.82;;;;;;;-2.89;48.77;99502.19;6073223;23;20598;-76
2023/03/11 00:47:23;;;;;;;16.25;7.35;;;;;;;-2.84;48.61;99514.22;6055888;23;20022;-75
2023/03/11 00:51:38;;;;;;;16.52;7.43;;;;;;;-2.80;48.55;99511.88;6081056;23;20038;-76
2023/03/11 00:54:47;;;;;;;18.67;7.28;;;;;;;-2.87;48.50;99495.47;6094595;23;20069;-76
2023/03/11 00:58:41;;;;;;;25.58;7.20;;;;;;;-3.07;47.33;99509.94;6079421;23;20026;-75
2023/03/11 01:02:28;;;;;;;15.88;7.13;;;;;;;-3.31;49.09;99491.09;6092069;23;20026;-75
2023/03/11 01:06:39;;;;;;;21.65;8.55;;;;;;;-3.48;48.63;99514.16;6094824;23;20026;-75
2023/03/11 01:10:02;;;;;;;21.38;9.57;;;;;;;-3.93;48.19;99499.50;6096258;23;20018;-77
2023/03/11 01:12:36;;;;;;;28.02;9.63;;;;;;;-3.98;49.41;99516.25;6069770;23;20332;-73
2023/03/11 01:15:07;;;;;;;23.20;9.50;;;;;;;-3.89;49.57;99485.28;6070949;23;20125;-76
2023/03/11 01:17:35;;;;;;;25.80;9.43;;;;;;;-3.55;49.57;99499.44;6070775;23;20089;-76
2023/03/11 01:20:42;;;;;;;21.45;9.55;;;;;;;-3.27;49.58;99508.25;6076872;23;20034;-76
2023/03/11 01:23:51;;;;;;;20.50;9.65;;;;;;;-3.25;49.20;99479.50;6058830;23;20026;-77
2023/03/11 01:26:59;;;;;;;21.88;9.55;;;;;;;-3.15;49.39;99503.66;6087568;23;20376;-76
2023/03/11 01:29:28;;;;;;;25.15;9.75;;;;;;;-3.04;49.41;99512.63;6095427;23;20029;-75
2023/03/11 01:36:40;;;;;;;18.48;8.30;;;;;;;-2.93;49.35;99510.53;6009794;23;20482;-74
2023/03/11 01:39:34;;;;;;;22.98;8.95;;;;;;;-3.01;48.57;99495.75;6070680;23;20034;-76
2023/03/11 01:47:29;;;;;;;21.77;9.65;;;;;;;-3.19;48.78;99511.97;6007682;23;20413;-76
2023/03/11 01:50:55;;;;;;;20.02;8.63;;;;;;;-3.09;49.25;99509.00;6062821;23;20030;-75
2023/03/11 01:54:43;;;;;;;28.42;9.60;;;;;;;-3.18;49.13;99483.16;6064434;23;20077;-76
2023/03/11 01:58:35;;;;;;;18.25;8.20;;;;;;;-3.02;49.67;99515.22;6049553;23;20031;-75
2023/03/11 02:02:38;;;;;;;21.90;9.77;;;;;;;-2.99;49.25;99512.81;6058083;23;20033;-76
2023/03/11 02:10:13;;;;;;;19.55;9.05;;;;;;;-3.45;48.38;99503.25;6027848;23;20038;-76
2023/03/11 02:14:15;;;;;;;17.77;8.95;;;;;;;-3.98;48.97;99512.00;5960909;23;20055;-76
2023/03/11 02:17:27;;;;;;;24.23;10.70;;;;;;;-4.43;50.54;99481.16;6006073;23;20028;-76
2023/03/11 02:21:49;;;;;;;23.50;11.10;;;;;;;-4.17;50.43;99487.44;5976331;23;20031;-76
2023/03/11 02:25:50;;;;;;;28.38;10.93;;;;;;;-3.98;50.57;99519.63;5985354;23;20024;-75
2023/03/11 02:37:09;;;;;;;25.25;10.23;;;;;;;-4.32;50.60;99512.16;6034144;23;20063;-75
2023/03/11 02:45:38;;;;;;;25.27;10.45;;;;;;;-4.49;52.33;99502.09;6008487;23;20023;-76
2023/03/11 02:48:10;;;;;;;25.58;10.57;;;;;;;-4.72;51.75;99468.84;5985799;23;20041;-76
2023/03/11 02:55:28;;;;;;;36.35;12.15;;;;;;;-4.49;52.75;99507.16;6009135;23;20203;-75
2023/03/11 02:59:10;;;;;;;43.00;14.85;;;;;;;-4.59;52.49;99513.47;6009018;23;20028;-76
2023/03/11 03:06:28;;;;;;;40.90;12.50;;;;;;;-4.74;53.39;99479.72;6007273;23;20142;-76
2023/03/11 03:11:02;;;;;;;25.58;10.88;;;;;;;-4.71;53.73;99508.69;6030882;23;20023;-75
2023/03/11 03:13:37;;;;;;;;;;;;;;;-4.73;54.18;99517.91;6010451;23;20165;-75
2023/03/11 03:17:44;;;;;;;30.80;9.25;;;;;;;-4.85;54.18;99490.25;6037623;23;20254;-76
2023/03/11 03:28:04;;;;;;;28.90;10.75;;;;;;;-4.89;54.83;99501.06;6033789;23;20139;-76
2023/03/11 03:30:44;;;;;;;26.38;9.43;;;;;;;-4.96;54.59;99481.22;6063989;23;20023;-75
2023/03/11 03:33:16;;;;;;;20.95;10.15;;;;;;;-4.79;55.35;99517.59;6066465;23;20044;-75
2023/03/11 03:36:20;;;;;;;27.67;10.80;;;;;;;-4.84;55.29;99519.03;6046425;23;20093;-74
2023/03/11 03:39:35;;;;;;;29.48;11.85;;;;;;;-5.08;55.97;99491.69;6047539;23;20122;-75
2023/03/11 03:42:33;;;;;;;30.45;12.38;;;;;;;-4.67;56.12;99508.84;6041491;23;20090;-75
2023/03/11 03:45:41;;;;;;;32.60;12.13;;;;;;;-4.66;55.82;99506.34;6041290;23;20515;-75
2023/03/11 03:48:11;;;;;;;27.65;12.18;;;;;;;-4.74;55.44;99500.03;6064263;23;20027;-75
2023/03/11 03:52:27;;;;;;;27.55;13.45;;;;;;;-4.60;56.91;99510.84;6065254;23;20023;-75
2023/03/11 03:55:05;;;;;;;33.67;13.50;;;;;;;-4.31;56.77;99508.81;6062288;23;20026;-74
2023/03/11 03:58:26;;;;;;;;;;;;;;;-4.13;56.85;99503.72;6050434;23;20022;-75
2023/03/11 04:01:48;;;;;;;29.45;13.55;;;;;;;-4.13;55.40;99501.16;6045287;23;19945;-75
2023/03/11 04:04:57;;;;;;;29.40;11.60;;;;;;;-4.28;55.70;99507.25;6041854;23;20054;-76
2023/03/11 04:07:51;;;;;;;27.92;11.88;;;;;;;-5.09;55.76;99411.28;6025765;23;20375;-75
2023/03/11 04:11:23;;;;;;;34.10;13.38;;;;;;;-4.71;56.50;99492.56;6065906;23;20022;-77
2023/03/11 04:15:09;;;;;;;28.25;12.45;;;;;;;-4.58;56.79;99486.41;6041466;23;20022;-75
2023/03/11 04:18:56;;;;;;;37.33;12.90;;;;;;;-4.72;56.28;99488.28;6090159;23;20482;-76
2023/03/11 04:23:27;;;;;;;25.58;11.32;;;;;;;-4.71;56.32;99473.13;6097522;23;20027;-78
2023/03/11 04:35:37;;;;;;;30.48;12.43;;;;;;;-4.67;57.24;99456.38;6097068;23;20545;-77
2023/03/11 04:39:01;;;;;;;24.05;11.73;;;;;;;-4.47;57.21;99464.91;6097099;23;20030;-75
2023/03/11 04:42:34;;;;;;;30.63;12.82;;;;;;;-4.47;57.28;99459.84;6075339;23;20609;-74
2023/03/11 04:45:51;;;;;;;31.38;13.23;;;;;;;-4.39;57.25;99460.19;6095064;23;20049;-76
2023/03/11 04:49:06;;;;;;;31.98;12.65;;;;;;;-4.47;57.57;99457.31;6071832;23;20066;-75
2023/03/11 04:52:22;;;;;;;22.25;11.52;;;;;;;-4.33;57.26;99457.03;6095800;23;20066;-76
2023/03/11 04:56:04;;;;;;;28.50;12.40;;;;;;;-4.26;57.41;99457.38;6089043;23;20374;-77
2023/03/11 04:59:41;;;;;;;20.92;10.80;;;;;;;-4.44;57.07;99454.91;6078927;23;20756;-76
2023/03/11 05:03:28;;;;;;;25.98;12.38;;;;;;;-4.61;57.22;99455.78;6075411;23;20030;-75
2023/03/11 05:07:23;;;;;;;28.58;13.27;;;;;;;-4.59;58.23;99455.06;6096795;23;20031;-76
2023/03/11 05:11:11;;;;;;;30.95;12.95;;;;;;;-4.35;59.08;99444.28;6100585;23;20383;-75
2023/03/11 05:17:23;;;;;;;23.63;11.45;;;;;;;-4.20;57.84;99450.84;6086867;23;20127;-77
2023/03/11 05:21:20;;;;;;;29.35;12.00;;;;;;;-4.13;58.70;99450.34;6109994;23;20355;-76
2023/03/11 05:24:39;;;;;;;30.98;12.13;;;;;;;-4.25;58.72;99454.03;6066439;23;20022;-75
2023/03/11 05:28:06;;;;;;;25.88;12.50;;;;;;;-4.29;58.49;99446.22;6062217;23;20037;-75
2023/03/11 05:35:47;;;;;;;22.90;10.35;;;;;;;-4.02;58.38;99449.13;6094026;23;20094;-77
2023/03/11 05:56:02;;;;;;;21.27;10.10;;;;;;;-3.11;59.01;99438.50;6068085;23;20022;-76
2023/03/11 06:00:33;;;;;;;23.48;10.27;;;;;;;-3.33;58.65;99433.38;6078306;23;20030;-76
2023/03/11 06:04:38;;;;;;;19.10;9.73;;;;;;;-3.41;58.99;99437.28;6073681;23;20443;-75
2023/03/11 06:07:55;;;;;;;17.77;8.88;;;;;;;-3.47;58.51;99439.59;6075161;23;20490;-76
2023/03/11 06:16:06;;;;;;;16.08;8.05;;;;;;;-3.23;57.94;99428.69;6083286;23;20474;-77
2023/03/11 06:20:20;;;;;;;15.15;7.70;;;;;;;-3.06;58.56;99431.88;6096288;23;20174;-76
2023/03/11 06:27:54;;;;;;;13.80;6.03;;;;;;;-3.34;57.33;99435.88;6099546;23;20097;-78
2023/03/11 06:31:53;;;;;;;;;;;;;;;-3.51;57.90;99450.44;6067984;23;20030;-78
2023/03/11 06:35:26;;;;;;;13.38;6.63;;;;;;;-3.68;58.73;99430.25;6020289;23;19933;-77
2023/03/11 06:43:58;;;;;;;10.90;5.68;;;;;;;-3.57;58.92;99406.91;6034273;23;20440;-77
2023/03/11 06:48:01;;;;;;;11.70;5.75;;;;;;;-3.37;59.28;99423.88;6021276;23;20034;-77
2023/03/11 07:05:44;;;;;;;5.57;3.60;;;;;;;-3.44;57.94;99429.53;5920804;24;20029;-78
2023/03/11 07:09:29;;;;;;;7.97;4.55;;;;;;;-3.45;58.23;99407.44;5924634;24;20029;-76
2023/03/11 07:12:21;;;;;;;6.47;3.75;;;;;;;-3.21;59.24;99406.69;5927760;24;20028;-75
2023/03/11 07:16:54;;;;;;;7.85;4.00;;;;;;;-2.96;58.58;99387.28;5874844;24;20040;-76
2023/03/11 07:30:12;;;;;;;6.60;4.03;;;;;;;-3.08;58.64;99388.53;5743002;24;20036;-76
2023/03/11 07:34:26;;;;;;;7.43;4.15;;;;;;;-2.94;58.26;99390.75;5689461;25;20049;-75
2023/03/11 07:47:42;;;;;;;5.38;2.80;;;;;;;-2.99;57.16;99366.81;5738832;25;20097;-80
2023/03/11 07:51:46;;;;;;;8.35;4.13;;;;;;;-2.94;58.64;99355.09;5739074;25;20078;-78
2023/03/11 07:56:24;;;;;;;6.25;4.10;;;;;;;-2.73;58.79;99340.63;5738301;25;20058;-77
2023/03/11 08:01:06;;;;;;;6.88;4.03;;;;;;;-2.65;58.43;99340.06;5619386;25;20093;-77
2023/03/11 08:05:11;;;;;;;5.18;3.08;;;;;;;-2.81;57.98;99331.84;5699528;24;20035;-77
2023/03/11 08:09:21;;;;;;;6.93;4.43;;;;;;;-2.70;58.55;99309.31;5772885;24;20106;-76
2023/03/11 08:13:26;;;;;;;7.50;4.15;;;;;;;-2.46;58.30;99311.03;5836082;24;20423;-76
2023/03/11 08:25:23;;;;;;;6.63;3.58;;;;;;;-2.08;58.29;99295.31;5840347;24;20040;-76
2023/03/11 08:28:02;;;;;;;6.55;3.65;;;;;;;-1.94;58.27;99316.19;5852333;24;20036;-77
2023/03/11 08:32:15;;;;;;;7.72;4.13;;;;;;;-1.79;58.87;99283.53;5817565;24;20023;-77
2023/03/11 08:37:06;;;;;;;7.10;4.18;;;;;;;-2.22;57.81;99288.06;5782551;24;20561;-79
2023/03/11 08:41:58;;;;;;;10.18;4.20;;;;;;;-2.50;57.75;99271.81;5816800;24;20096;-76
2023/03/11 09:02:42;;;;;;;8.93;4.20;;;;;;;-1.85;58.13;99268.88;5764299;24;20156;-78
2023/03/11 09:11:36;;;;;;;6.75;3.72;;;;;;;-2.33;59.01;99206.13;5745703;24;20059;-77
2023/03/11 09:16:10;;;;;;;6.30;3.50;;;;;;;-2.17;58.52;99261.06;5791408;24;20063;-75
2023/03/11 09:20:33;;;;;;;7.43;3.72;;;;;;;-2.08;58.68;99257.94;5860674;24;20099;-77
2023/03/11 09:24:50;;;;;;;7.93;4.30;;;;;;;-1.88;59.33;99238.19;5843673;24;20139;-76
2023/03/11 09:37:01;;;;;;;7.70;3.40;;;;;;;-2.20;59.35;99239.66;5814022;24;20564;-76
2023/03/11 09:44:52;;;;;;;12.77;4.93;;;;;;;-1.98;59.25;99226.81;5840445;24;20022;-78
2023/03/11 09:49:47;;;;;;;18.42;6.32;;;;;;;-1.87;59.07;99223.75;5845091;24;20037;-77
2023/03/11 10:02:38;;;;;;;4.07;2.83;;;;;;;-2.54;58.51;99193.56;5926969;24;20511;-78
2023/03/11 10:07:35;;;;;;;8.38;3.85;;;;;;;-2.74;59.24;99190.31;5954978;24;20149;-76
2023/03/11 10:11:39;;;;;;;5.47;3.33;;;;;;;-2.68;59.35;99184.53;5936627;24;20419;-77
2023/03/11 10:16:11;;;;;;;8.15;4.50;;;;;;;-2.29;60.07;99195.22;5953318;24;20039;-77
2023/03/11 10:21:16;;;;;;;7.65;3.97;;;;;;;-1.97;59.56;99179.22;5954713;24;20025;-77
2023/03/11 10:25:51;;;;;;;11.43;5.45;;;;;;;-2.05;59.40;99183.22;5953943;24;20028;-77
2023/03/11 10:30:23;;;;;;;7.38;3.60;;;;;;;-2.12;59.43;99151.56;5895676;24;20244;-76
2023/03/11 10:34:48;;;;;;;7.60;3.97;;;;;;;-1.98;59.49;99140.09;5818210;24;20119;-78
2023/03/11 10:51:46;;;;;;;8.82;4.05;;;;;;;-2.08;59.31;99116.81;5689174;25;20025;-78
2023/03/11 11:00:47;;;;;;;9.98;4.82;;;;;;;-2.29;60.53;99092.38;5632720;25;20077;-77
2023/03/11 11:04:26;;;;;;;9.70;4.63;;;;;;;-2.05;59.62;99077.00;5671289;25;20040;-77
2023/03/11 11:18:10;;;;;;;10.18;4.88;;;;;;;-2.03;60.31;99059.19;5898636;24;20088;-76
2023/03/11 11:48:18;;;;;;;8.57;4.38;;;;;;;-2.04;59.88;99024.31;5847083;24;20263;-78
2023/03/11 11:52:56;;;;;;;11.63;5.43;;;;;;;-2.06;60.17;99031.91;5837223;24;20022;-77
2023/03/11 12:01:18;;;;;;;8.73;4.93;;;;;;;-2.23;60.65;99008.47;5883998;24;20029;-77
2023/03/11 12:14:44;;;;;;;8.77;4.40;;;;;;;-2.19;60.72;98995.00;5827394;24;20036;-79
2023/03/11 12:23:03;;;;;;;8.13;4.45;;;;;;;-2.29;60.81;99001.50;5825711;24;20387;-79
2023/03/11 12:27:34;;;;;;;5.63;3.80;;;;;;;-2.25;60.62;98989.72;5818202;24;20041;-77
2023/03/11 12:36:22;;;;;;;6.38;4.00;;;;;;;-2.03;61.11;98985.22;5817567;24;20121;-77
2023/03/11 12:39:39;;;;;;;6.53;4.25;;;;;;;-2.04;60.44;99004.78;5817820;24;20031;-79
2023/03/11 12:44:15;;;;;;;7.47;4.25;;;;;;;-2.06;61.28;98982.59;5803478;24;20043;-77
2023/03/11 12:57:17;;;;;;;8.50;4.75;;;;;;;-1.84;60.74;98958.56;5665990;25;20047;-77
2023/03/11 13:00:29;;;;;;;8.88;4.32;;;;;;;-2.02;60.33;98964.91;5791384;24;20169;-78
2023/03/11 13:04:00;;;;;;;6.57;3.35;;;;;;;-2.03;61.08;98952.97;5823106;24;20081;-79
2023/03/11 13:08:36;;;;;;;8.65;4.38;;;;;;;-1.97;60.07;98953.13;5952151;24;20032;-78
2023/03/11 13:22:03;;;;;;;6.40;4.03;;;;;;;-1.55;60.85;98932.97;5870921;24;20025;-78
2023/03/11 13:26:14;;;;;;;9.88;4.47;;;;;;;-1.60;60.54;98914.97;5950573;23;20417;-76
2023/03/11 13:35:16;;;;;;;;;;;;;;;-1.70;60.32;98923.22;5980857;24;20112;-77
2023/03/11 13:53:32;;;;;;;7.07;4.18;;;;;;;-1.88;60.80;98891.31;5870650;24;20036;-80
2023/03/11 14:01:47;;;;;;;10.80;5.20;;;;;;;-1.70;61.15;98878.16;5870376;24;20028;-78
2023/03/11 14:04:52;;;;;;;10.48;5.20;;;;;;;-1.72;61.13;98881.50;5849838;24;20097;-78
2023/03/11 14:22:37;;;;;;;8.15;4.18;;;;;;;-1.87;61.70;98811.41;5953619;24;20035;-76
2023/03/11 14:27:13;;;;;;;9.18;5.38;;;;;;;-1.52;61.87;98853.94;5963971;23;20034;-78
2023/03/11 14:36:08;;;;;;;10.35;4.90;;;;;;;-1.44;61.54;98836.28;5868367;24;20032;-76
2023/03/11 14:40:30;;;;;;;7.65;4.45;;;;;;;-2.32;61.48;98689.63;5853438;24;20040;-79
2023/03/11 14:58:13;;;;;;;6.95;3.83;;;;;;;-1.52;62.69;98802.88;5925731;24;20415;-78
2023/03/11 15:02:40;;;;;;;6.97;4.05;;;;;;;-1.34;62.54;98794.81;5910705;24;20045;-75
2023/03/11 15:11:58;;;;;;;9.77;5.35;;;;;;;-1.67;62.50;98772.78;5925150;24;20145;-75
2023/03/11 15:16:17;;;;;;;7.63;5.00;;;;;;;-1.47;62.57;98814.06;5914894;24;20078;-76
2023/03/11 15:33:59;;;;;;;9.85;4.78;;;;;;;-1.53;62.36;98784.19;6037832;23;20034;-76
2023/03/11 15:46:23;;;;;;;11.43;4.53;;;;;;;-1.45;62.77;98753.72;6038028;23;20030;-77
2023/03/11 15:50:33;;;;;;;9.55;4.63;;;;;;;-1.40;62.77;98759.81;6021714;23;20102;-76
2023/03/11 15:59:40;;;;;;;9.57;4.45;;;;;;;-1.54;63.34;98736.50;5865268;24;20081;-76
2023/03/11 16:03:20;;;;;;;8.27;4.53;;;;;;;-1.48;63.55;98725.56;5739316;25;20028;-76
2023/03/11 16:15:37;;;;;;;6.43;3.92;;;;;;;-1.52;62.84;98711.03;5613314;25;20555;-77
2023/03/11 16:25:07;;;;;;;8.93;5.00;;;;;;;-1.29;63.85;98719.19;5612269;25;20078;-77
2023/03/11 16:47:33;;;;;;;7.70;4.30;;;;;;;-1.17;64.13;98653.88;5712901;25;20123;-75
2023/03/11 16:51:28;;;;;;;8.63;5.18;;;;;;;-1.14;63.88;98636.97;5701406;25;20166;-77
2023/03/11 16:55:19;;;;;;;8.45;3.67;;;;;;;-1.08;64.22;98642.16;5687790;25;20040;-78
2023/03/11 17:41:13;;;;;;;9.43;5.07;;;;;;;-0.56;64.86;98546.84;5751426;24;20048;-75
2023/03/11 17:45:58;;;;;;;13.35;5.78;;;;;;;-0.45;64.12;98547.00;5841267;24;20103;-76
2023/03/11 17:50:10;;;;;;;11.02;5.65;;;;;;;-0.46;64.66;98524.84;5783979;24;20053;-77
2023/03/11 17:54:59;;;;;;;13.73;5.32;;;;;;;-0.53;64.47;98515.34;5768940;24;20113;-76
2023/03/11 18:30:34;;;;;;;13.50;6.38;;;;;;;-0.31;65.07;98484.16;5791826;24;20170;-75
2023/03/11 18:35:00;;;;;;;11.88;6.00;;;;;;;-0.51;65.73;98499.22;5872957;24;20036;-75
2023/03/11 19:03:14;;;;;;;10.95;6.53;;;;;;;-0.03;65.98;98429.97;5844715;24;20060;-79
2023/03/11 19:12:18;;;;;;;15.35;7.38;;;;;;;-0.03;66.17;98397.56;5817453;24;20124;-77
2023/03/11 19:42:50;;;;;;;14.00;7.60;;;;;;;-0.04;66.95;98316.56;5738758;25;20113;-77
2023/03/11 19:52:21;;;;;;;13.32;7.10;;;;;;;-0.11;67.19;98301.13;5734663;24;20121;-76
2023/03/11 20:17:24;;;;;;;16.75;7.55;;;;;;;-0.24;69.48;98266.91;5765086;24;20120;-80
2023/03/11 20:41:37;;;;;;;13.40;6.82;;;;;;;0.07;69.65;98193.03;5924461;24;20035;-77
2023/03/11 20:55:50;;;;;;;13.05;5.97;;;;;;;0.21;71.40;98155.59;5951923;24;20076;-76
2023/03/11 21:45:36;;;;;;;14.88;7.00;;;;;;;0.98;73.10;98033.88;5765172;24;20179;-76
2023/03/11 21:49:31;;;;;;;11.73;5.95;;;;;;;1.10;72.96;98023.63;5789198;24;20038;-77
2023/03/11 21:53:57;;;;;;;11.45;5.68;;;;;;;1.17;73.74;98027.94;5763297;24;20434;-76
2023/03/11 22:07:43;;;;;;;10.57;4.85;;;;;;;1.04;73.23;97974.94;5789400;24;20118;-74
2023/03/11 22:29:58;;;;;;;;;;;;;;;1.27;74.24;97925.41;5794749;24;20058;-77
2023/03/11 22:34:23;;;;;;;7.97;4.00;;;;;;;1.23;74.87;97921.13;5869782;24;20360;-76
2023/03/11 22:37:04;;;;;;;7.35;4.25;;;;;;;1.32;75.31;97924.56;5910335;24;20326;-72
2023/03/11 22:41:18;;;;;;;6.72;3.80;;;;;;;1.38;75.27;97907.44;5887446;24;20029;-76
2023/03/11 22:43:52;;;;;;;8.70;4.35;;;;;;;1.37;75.12;97900.59;5895233;24;20029;-76
2023/03/11 22:47:58;;;;;;;7.47;3.55;;;;;;;1.40;75.33;97914.28;5755760;24;20027;-76
2023/03/11 22:51:57;;;;;;;5.45;3.40;;;;;;;1.30;75.63;97879.28;5887264;24;20029;-78
2023/03/11 22:56:36;;;;;;;5.90;3.35;;;;;;;1.33;75.68;97869.00;5915575;24;20036;-76
2023/03/11 22:59:48;;;;;;;;;;;;;;;1.48;75.40;97879.22;5902839;24;20025;-77
2023/03/11 23:04:22;;;;;;;6.07;2.95;;;;;;;1.20;76.30;97833.19;5898210;24;20049;-75
2023/03/11 23:08:24;;;;;;;6.13;3.00;;;;;;;1.63;76.62;97870.63;5898049;24;20390;-77
2023/03/11 23:11:28;;;;;;;4.55;2.60;;;;;;;1.66;76.09;97846.66;5870497;24;20431;-78
2023/03/11 23:15:07;;;;;;;5.05;3.10;;;;;;;1.70;76.04;97848.38;5884411;24;20042;-76
2023/03/11 23:19:03;;;;;;;5.57;2.75;;;;;;;1.75;75.96;97846.66;5980151;24;20020;-76
2023/03/11 23:23:26;;;;;;;3.90;2.90;;;;;;;1.85;75.77;97837.19;5961519;24;20516;-76
2023/03/11 23:26:36;;;;;;;4.13;2.33;;;;;;;1.97;76.70;97815.75;5970887;23;20049;-76
2023/03/11 23:30:47;;;;;;;3.83;2.08;;;;;;;2.06;75.94;97818.28;5980613;24;20352;-75
2023/03/11 23:34:08;;;;;;;2.88;1.73;;;;;;;1.94;76.45;97810.63;5978339;24;20020;-76
2023/03/11 23:37:19;;;;;;;3.22;2.10;;;;;;;2.05;76.71;97808.88;5996074;23;20209;-77
2023/03/11 23:44:38;;;;;;;2.25;1.67;;;;;;;2.18;76.43;97770.28;5971501;24;20028;-74
2023/03/11 23:52:28;;;;;;;1.83;1.42;;;;;;;2.22;76.69;97757.41;5923358;24;20112;-76
2023/03/11 23:56:09;;;;;;;1.95;1.50;;;;;;;2.25;76.81;97756.53;5955797;24;20336;-74
2023/03/11 23:59:23;;;;;;;2.88;1.77;;;;;;;1.80;76.97;97673.06;5950180;24;20081;-75
